Time;durP1;ratioP1;P1;durP2;ratioP2;P2;SDS_P1;SDS_P2;PMS_P1;PMS_P2;Temp;Humidity;BMP_temperature;BMP_pressure;BME280_temperature;BME280_humidity;BME280_pressure;Samples;Min_cycle;Max_cycle;Signal;HPM_P1;HPM_P2
2023/05/03 00:00:59;;;;;;;4.43;3.03;;;11.50;92.20;;;;;;4163619;28;20095;-70
2023/05/03 00:03:03;;;;;;;9.93;3.83;;;11.50;92.40;;;;;;4164761;28;20025;-58
2023/05/03 00:05:07;;;;;;;7.93;3.13;;;11.40;92.70;;;;;;4163683;28;20077;-69
2023/05/03 00:07:08;;;;;;;4.10;2.90;;;11.40;92.90;;;;;;4161981;28;20079;-69
2023/05/03 00:09:09;;;;;;;6.40;2.80;;;11.40;93.20;;;;;;4163173;28;20894;-69
2023/05/03 00:11:10;;;;;;;4.43;3.00;;;11.40;93.40;;;;;;4162945;28;20041;-68
2023/05/03 00:13:13;;;;;;;9.47;3.10;;;11.40;93.50;;;;;;4146478;28;20092;-71
2023/05/03 00:15:14;;;;;;;3.60;2.83;;;11.40;93.70;;;;;;4148187;28;20033;-69
2023/05/03 00:17:15;;;;;;;5.57;3.17;;;11.40;93.70;;;;;;4146992;28;20092;-65
2023/05/03 00:19:16;;;;;;;9.27;2.93;;;11.50;93.60;;;;;;4147738;28;20037;-69
2023/05/03 00:21:17;;;;;;;5.87;2.60;;;11.50;93.60;;;;;;4147881;28;20022;-63
2023/05/03 00:23:19;;;;;;;4.93;2.93;;;11.50;93.60;;;;;;4147472;28;20030;-63
2023/05/03 00:25:20;;;;;;;7.23;2.67;;;11.50;93.80;;;;;;4147797;28;20038;-67
2023/05/03 00:27:23;;;;;;;3.67;2.23;;;11.50;93.70;;;;;;4146675;28;20038;-70
2023/05/03 00:29:24;;;;;;;4.97;2.60;;;11.50;93.80;;;;;;4148071;28;20061;-63
2023/05/03 00:31:25;;;;;;;5.03;2.70;;;11.50;93.90;;;;;;4146723;28;20544;-70
2023/05/03 00:33:27;;;;;;;6.23;3.47;;;11.50;94.20;;;;;;4148081;28;20041;-67
2023/05/03 00:35:28;;;;;;;5.57;2.50;;;11.50;94.20;;;;;;4151929;28;20049;-65
2023/05/03 00:37:30;;;;;;;6.77;3.23;;;11.50;94.40;;;;;;4130346;28;20066;-69
2023/05/03 00:39:31;;;;;;;7.97;2.90;;;11.50;94.50;;;;;;4163080;28;20030;-68
2023/05/03 00:41:32;;;;;;;7.30;2.77;;;11.50;94.60;;;;;;4164433;28;20038;-65
2023/05/03 00:43:34;;;;;;;4.47;3.03;;;11.40;94.70;;;;;;4162483;28;20037;-64
2023/05/03 00:45:35;;;;;;;7.53;2.80;;;11.40;94.90;;;;;;4164054;28;20041;-67
2023/05/03 00:47:37;;;;;;;7.60;3.27;;;11.40;95.10;;;;;;4162974;28;20033;-65
2023/05/03 00:49:38;;;;;;;7.47;2.93;;;11.30;95.40;;;;;;4164007;28;20029;-70
2023/05/03 00:51:40;;;;;;;7.47;2.40;;;11.30;95.60;;;;;;4163569;28;20033;-69
2023/05/03 00:53:42;;;;;;;5.43;2.90;;;11.30;95.60;;;;;;4162413;28;20095;-68
2023/05/03 00:55:44;;;;;;;7.90;2.53;;;11.30;95.80;;;;;;4162830;28;20041;-56
2023/05/03 00:57:45;;;;;;;4.90;2.60;;;11.30;95.90;;;;;;4151593;28;20042;-64
2023/05/03 00:59:47;;;;;;;3.47;2.70;;;11.30;95.90;;;;;;4146491;28;20068;-62
2023/05/03 01:01:50;;;;;;;4.00;2.33;;;11.30;95.90;;;;;;4146368;28;20253;-68
2023/05/03 01:03:51;;;;;;;3.60;2.27;;;11.40;95.70;;;;;;4147566;28;20037;-70
2023/05/03 01:05:52;;;;;;;8.17;3.13;;;11.40;95.50;;;;;;4146221;28;20037;-64
2023/05/03 01:08:12;;;;;;;4.53;2.50;;;11.40;95.60;;;;;;4147477;28;20026;-66
2023/05/03 01:10:47;;;;;;;5.10;2.80;;;11.40;95.60;;;;;;4142928;28;20046;-69
2023/05/03 01:12:54;;;;;;;7.07;2.60;;;11.40;95.80;;;;;;4163620;28;20037;-70
2023/05/03 01:15:11;;;;;;;9.90;3.23;;;11.40;95.70;;;;;;4162661;28;20026;-70
2023/05/03 01:17:13;;;;;;;5.43;2.17;;;11.40;95.80;;;;;;4163052;28;20092;-63
2023/05/03 01:19:39;;;;;;;4.20;2.60;;;11.30;95.90;;;;;;4162689;28;20079;-65
2023/05/03 01:21:46;;;;;;;7.43;2.67;;;11.30;96.30;;;;;;4163155;28;20539;-70
2023/05/03 01:23:59;;;;;;;3.53;2.50;;;11.30;96.30;;;;;;4158727;28;20030;-65
2023/05/03 01:26:15;;;;;;;10.03;3.17;;;11.30;96.30;;;;;;4146761;28;20064;-68
2023/05/03 01:28:16;;;;;;;11.33;3.40;;;11.30;96.40;;;;;;4146527;28;20033;-67
2023/05/03 01:30:19;;;;;;;4.90;2.20;;;11.30;96.20;;;;;;4146039;28;20026;-69
2023/05/03 01:32:31;;;;;;;3.63;2.60;;;11.20;96.40;;;;;;4161934;28;20041;-65
2023/05/03 01:34:53;;;;;;;4.97;2.70;;;11.20;96.70;;;;;;4163096;28;20539;-69
2023/05/03 01:36:58;;;;;;;4.27;3.17;;;11.10;96.60;;;;;;4144937;28;20045;-69
2023/05/03 01:39:06;;;;;;;7.33;3.47;;;11.10;97.30;;;;;;4162971;28;20029;-57
2023/05/03 01:41:12;;;;;;;6.77;3.10;;;11.00;97.60;;;;;;4162646;28;20029;-68
2023/05/03 01:43:16;;;;;;;3.80;2.50;;;10.90;98.00;;;;;;4162542;28;20042;-67
2023/05/03 01:45:18;;;;;;;7.23;3.67;;;10.80;98.10;;;;;;4161847;28;20037;-57
2023/05/03 01:47:19;;;;;;;10.20;3.43;;;10.70;98.50;;;;;;4163067;28;20029;-69
2023/05/03 01:49:21;;;;;;;6.37;3.23;;;10.70;98.90;;;;;;4162128;28;20025;-69
2023/05/03 01:51:22;;;;;;;8.80;3.13;;;10.70;99.30;;;;;;4163594;28;20544;-70
2023/05/03 01:53:23;;;;;;;6.73;3.50;;;10.70;99.60;;;;;;4161713;28;20052;-69
2023/05/03 01:55:24;;;;;;;5.73;3.63;;;10.70;99.90;;;;;;4163119;28;20068;-58
2023/05/03 01:57:25;;;;;;;8.27;3.33;;;10.70;99.90;;;;;;4160720;28;20045;-54
2023/05/03 01:59:26;;;;;;;8.13;3.20;;;10.60;99.90;;;;;;4160471;28;20046;-56
2023/05/03 02:01:27;;;;;;;5.73;3.80;;;10.60;99.90;;;;;;4154853;28;20041;-59
2023/05/03 02:03:28;;;;;;;14.77;5.00;;;10.60;99.90;;;;;;4153808;28;20029;-70
2023/05/03 02:05:29;;;;;;;11.97;4.47;;;10.50;99.90;;;;;;4145466;28;20080;-58
2023/05/03 02:07:31;;;;;;;9.63;4.20;;;10.50;99.90;;;;;;4145441;28;20541;-59
2023/05/03 02:09:32;;;;;;;8.80;3.73;;;10.50;99.90;;;;;;4145332;28;20049;-68
2023/05/03 02:11:38;;;;;;;9.63;4.60;;;10.40;99.90;;;;;;4145426;28;20050;-59
2023/05/03 02:13:40;;;;;;;11.30;4.70;;;10.40;99.90;;;;;;4146131;28;20072;-70
2023/05/03 02:15:41;;;;;;;12.40;5.57;;;10.30;99.90;;;;;;4161843;28;20029;-67
2023/05/03 02:17:42;;;;;;;14.63;5.63;;;10.20;99.90;;;;;;4162121;28;20100;-70
2023/05/03 02:19:43;;;;;;;9.03;5.57;;;10.20;99.90;;;;;;4150481;28;20453;-69
2023/05/03 02:21:45;;;;;;;13.40;5.77;;;10.10;99.90;;;;;;4146254;28;20034;-56
2023/05/03 02:23:46;;;;;;;11.00;5.70;;;10.10;99.90;;;;;;4144752;28;20121;-70
2023/05/03 02:25:47;;;;;;;7.47;5.03;;;10.00;99.90;;;;;;4146234;28;20037;-69
2023/05/03 02:27:49;;;;;;;10.07;5.17;;;9.90;99.90;;;;;;4145146;28;20098;-60
2023/05/03 02:29:51;;;;;;;9.03;4.80;;;9.90;99.90;;;;;;4145723;28;20050;-59
2023/05/03 02:31:52;;;;;;;15.27;5.90;;;9.90;99.90;;;;;;4144913;28;20026;-70
2023/05/03 02:33:54;;;;;;;11.80;5.63;;;9.90;99.90;;;;;;4146153;28;20038;-69
2023/05/03 02:35:55;;;;;;;11.33;5.97;;;9.90;99.90;;;;;;4127051;28;20166;-68
2023/05/03 02:37:56;;;;;;;18.23;6.37;;;9.90;99.90;;;;;;4149829;28;20482;-69
2023/05/03 02:39:57;;;;;;;12.40;5.50;;;9.80;99.90;;;;;;4160692;28;20088;-64
2023/05/03 02:41:58;;;;;;;12.63;6.40;;;9.80;99.90;;;;;;4143426;28;20076;-65
2023/05/03 02:44:00;;;;;;;17.10;6.17;;;9.70;99.90;;;;;;4156518;28;20034;-68
2023/05/03 02:46:01;;;;;;;16.47;7.00;;;9.60;99.90;;;;;;4149276;28;20117;-69
2023/05/03 02:48:02;;;;;;;10.70;6.07;;;9.60;99.90;;;;;;4145645;28;20103;-57
2023/05/03 02:50:05;;;;;;;11.80;6.37;;;9.50;99.90;;;;;;4144983;28;20474;-70
2023/05/03 02:52:06;;;;;;;8.30;5.00;;;9.40;99.90;;;;;;4146050;28;20033;-69
2023/05/03 02:54:07;;;;;;;13.20;6.17;;;9.30;99.90;;;;;;4144672;28;20566;-70
2023/05/03 02:56:08;;;;;;;12.07;5.80;;;9.30;99.90;;;;;;4145647;28;20104;-69
2023/05/03 02:58:09;;;;;;;13.80;6.27;;;9.20;99.90;;;;;;4148576;28;20117;-61
2023/05/03 03:00:14;;;;;;;11.80;5.93;;;9.20;99.90;;;;;;4160756;28;20102;-64
2023/05/03 03:02:15;;;;;;;11.53;5.37;;;9.10;99.90;;;;;;4160764;28;20083;-54
2023/05/03 03:04:16;;;;;;;11.33;5.80;;;9.10;99.90;;;;;;4162005;28;20052;-64
2023/05/03 03:06:17;;;;;;;10.27;5.90;;;9.00;99.90;;;;;;4160388;28;20049;-67
2023/05/03 03:08:18;;;;;;;8.77;6.27;;;9.00;99.90;;;;;;4161093;28;20045;-57
2023/05/03 03:10:19;;;;;;;10.40;5.87;;;9.00;99.90;;;;;;4160970;28;20067;-69
2023/05/03 03:12:20;;;;;;;13.30;5.70;;;9.00;99.90;;;;;;4161166;28;20084;-71
2023/05/03 03:14:21;;;;;;;13.47;6.40;;;9.00;99.90;;;;;;4160956;28;20091;-70
2023/05/03 03:16:22;;;;;;;19.77;6.03;;;9.00;99.90;;;;;;4153981;28;20095;-69
2023/05/03 03:18:24;;;;;;;10.87;6.23;;;9.00;99.90;;;;;;4145078;28;20578;-70
2023/05/03 03:20:25;;;;;;;14.83;6.90;;;9.00;99.90;;;;;;4144718;28;20092;-70
2023/05/03 03:22:26;;;;;;;15.00;6.10;;;9.00;99.90;;;;;;4145411;28;20474;-69
2023/05/03 03:24:27;;;;;;;15.73;6.30;;;9.00;99.90;;;;;;4143237;28;20068;-69
2023/05/03 03:26:28;;;;;;;14.27;6.07;;;9.00;99.90;;;;;;4145412;28;20021;-63
2023/05/03 03:28:29;;;;;;;15.00;6.13;;;9.10;99.90;;;;;;4144375;28;20030;-68
2023/05/03 03:30:31;;;;;;;10.23;6.10;;;9.10;99.90;;;;;;4127463;28;20035;-70
2023/05/03 03:32:32;;;;;;;14.27;6.13;;;9.10;99.90;;;;;;4145235;28;20514;-70
2023/05/03 03:34:33;;;;;;;13.27;6.37;;;9.10;99.90;;;;;;4161796;28;20080;-70
2023/05/03 03:36:36;;;;;;;11.93;5.80;;;9.20;99.90;;;;;;4160493;28;20029;-69
2023/05/03 03:38:37;;;;;;;15.03;6.60;;;9.20;99.90;;;;;;4160940;28;20057;-69
2023/05/03 03:40:39;;;;;;;18.07;6.63;;;9.20;99.90;;;;;;4160271;28;20037;-71
2023/05/03 03:42:40;;;;;;;15.37;7.03;;;9.20;99.90;;;;;;4161433;28;20038;-69
2023/05/03 03:44:41;;;;;;;14.87;6.87;;;9.20;99.90;;;;;;4161030;28;20025;-70
2023/05/03 03:46:42;;;;;;;10.67;6.10;;;9.40;99.90;;;;;;4159102;28;20548;-59
2023/05/03 03:48:43;;;;;;;24.13;6.57;;;9.40;99.90;;;;;;4156965;28;20026;-67
2023/05/03 03:50:44;;;;;;;14.73;6.20;;;9.50;99.90;;;;;;4144414;28;20426;-68
2023/05/03 03:52:45;;;;;;;13.10;5.67;;;9.60;99.90;;;;;;4152343;28;20071;-57
2023/05/03 03:54:46;;;;;;;8.73;5.87;;;9.70;99.90;;;;;;4148951;28;20050;-69
2023/05/03 03:56:48;;;;;;;12.23;5.50;;;10.00;99.90;;;;;;4145034;28;20042;-70
2023/05/03 03:58:49;;;;;;;11.20;5.23;;;10.50;99.90;;;;;;4152556;28;20071;-59
2023/05/03 04:00:51;;;;;;;13.40;5.93;;;10.90;99.90;;;;;;4160555;28;20037;-69
2023/05/03 04:02:52;;;;;;;9.17;5.43;;;11.50;99.90;;;;;;4160342;28;20449;-59
2023/05/03 04:04:53;;;;;;;16.57;6.00;;;11.90;99.90;;;;;;4161189;28;20071;-70
2023/05/03 04:06:54;;;;;;;17.73;6.20;;;12.20;99.90;;;;;;4158650;28;20568;-70
2023/05/03 04:08:55;;;;;;;13.40;5.93;;;12.70;99.90;;;;;;4143242;28;20088;-62
2023/05/03 04:10:56;;;;;;;11.30;6.17;;;13.20;99.90;;;;;;4159124;28;20022;-62
2023/05/03 04:12:58;;;;;;;22.07;7.73;;;13.60;99.90;;;;;;4160558;28;20458;-78
2023/05/03 04:14:59;;;;;;;14.37;6.87;;;13.90;99.90;;;;;;4160251;28;20968;-71
2023/05/03 04:17:00;;;;;;;18.37;7.47;;;14.30;99.90;;;;;;4147128;28;20034;-72
2023/05/03 04:19:01;;;;;;;27.43;7.67;;;14.70;99.90;;;;;;4143751;28;20461;-66
2023/05/03 04:21:03;;;;;;;19.80;7.33;;;15.00;99.90;;;;;;4146079;28;20099;-71
2023/05/03 04:23:04;;;;;;;29.40;7.33;;;15.30;99.60;;;;;;4158261;28;20075;-73
2023/05/03 04:25:07;;;;;;;24.60;7.40;;;15.50;98.90;;;;;;4159995;28;20437;-67
2023/05/03 04:27:08;;;;;;;19.30;7.33;;;15.80;98.60;;;;;;4157874;28;20030;-74
2023/05/03 04:29:11;;;;;;;20.67;6.77;;;16.20;97.90;;;;;;4159642;28;20049;-68
2023/05/03 04:31:13;;;;;;;27.75;8.30;;;16.40;97.30;;;;;;4161207;28;20021;-72
2023/05/03 04:33:14;;;;;;;27.23;7.50;;;16.20;97.30;;;;;;4159294;28;20041;-74
2023/05/03 04:35:17;;;;;;;28.42;6.78;;;16.20;97.10;;;;;;4152511;28;20100;-68
2023/05/03 04:37:18;;;;;;;22.83;6.60;;;16.30;96.90;;;;;;4146236;28;20037;-71
2023/05/03 04:39:21;;;;;;;25.65;6.45;;;16.40;96.60;;;;;;4147762;28;20042;-70
2023/05/03 04:41:23;;;;;;;20.63;6.82;;;16.50;96.20;;;;;;4146594;28;20038;-72
2023/05/03 04:43:24;;;;;;;20.95;6.40;;;16.70;95.90;;;;;;4147502;28;20030;-73
2023/05/03 04:45:26;;;;;;;28.58;7.85;;;16.70;95.50;;;;;;4153898;28;20033;-72
2023/05/03 04:47:27;;;;;;;28.50;7.82;;;16.50;95.00;;;;;;4156806;28;20026;-71
2023/05/03 04:49:28;;;;;;;29.80;9.35;;;16.30;94.90;;;;;;4153255;28;20065;-71
2023/05/03 04:51:30;;;;;;;43.47;9.13;;;15.90;95.10;;;;;;4162679;28;20444;-71
2023/05/03 04:53:31;;;;;;;30.92;7.57;;;15.60;95.40;;;;;;4163084;28;20432;-71
2023/05/03 04:55:32;;;;;;;20.48;8.02;;;15.30;95.70;;;;;;4156732;28;20033;-72
2023/05/03 04:57:33;;;;;;;25.95;8.05;;;15.00;96.00;;;;;;4159447;28;20432;-62
2023/05/03 04:59:35;;;;;;;26.95;7.75;;;15.20;96.10;;;;;;4129494;28;20067;-73
2023/05/03 05:01:36;;;;;;;37.78;9.95;;;15.20;95.90;;;;;;4147237;28;20033;-73
2023/05/03 05:03:37;;;;;;;33.53;8.00;;;15.10;96.00;;;;;;4145735;28;20092;-58
2023/05/03 05:05:38;;;;;;;29.05;11.38;;;14.90;95.90;;;;;;4146841;28;20799;-73
2023/05/03 05:07:39;;;;;;;21.05;8.05;;;15.10;96.10;;;;;;4145991;28;20030;-73
2023/05/03 05:09:41;;;;;;;29.52;9.60;;;15.10;95.80;;;;;;4147063;28;20100;-66
2023/05/03 05:11:42;;;;;;;20.95;6.53;;;15.30;95.70;;;;;;4146012;28;20026;-65
2023/05/03 05:13:43;;;;;;;21.48;7.40;;;15.50;95.40;;;;;;4147040;28;20061;-71
2023/05/03 05:15:44;;;;;;;15.95;6.65;;;15.70;95.20;;;;;;4146120;28;20034;-67
2023/05/03 05:17:45;;;;;;;15.15;6.22;;;15.80;95.00;;;;;;4145512;28;20107;-70
2023/05/03 05:19:46;;;;;;;13.65;5.57;;;15.90;94.90;;;;;;4146223;28;20136;-69
2023/05/03 05:21:47;;;;;;;12.88;4.40;;;15.80;94.60;;;;;;4146797;28;20029;-75
2023/05/03 05:23:48;;;;;;;9.05;4.05;;;15.80;94.70;;;;;;4146031;28;20045;-72
2023/05/03 05:25:49;;;;;;;8.48;3.15;;;15.60;94.80;;;;;;4145931;28;20298;-73
2023/05/03 05:27:51;;;;;;;7.07;3.95;;;15.60;94.60;;;;;;4132888;28;20085;-68
2023/05/03 05:29:52;;;;;;;10.50;3.60;;;15.50;94.70;;;;;;4162244;28;20148;-65
2023/05/03 05:31:53;;;;;;;8.65;3.35;;;15.50;94.90;;;;;;4168570;28;20041;-72
2023/05/03 05:33:54;;;;;;;6.03;3.13;;;15.50;94.90;;;;;;4162177;28;20485;-74
2023/05/03 05:35:55;;;;;;;6.90;2.95;;;15.60;94.80;;;;;;4172656;28;20045;-60
2023/05/03 05:37:56;;;;;;;8.18;2.58;;;15.60;94.80;;;;;;4169936;28;20123;-60
2023/05/03 05:39:57;;;;;;;8.00;3.60;;;15.50;95.00;;;;;;4156483;28;20038;-62
2023/05/03 05:41:58;;;;;;;5.70;2.80;;;15.30;95.20;;;;;;4164195;28;20106;-62
2023/05/03 05:43:59;;;;;;;8.00;3.00;;;15.10;95.70;;;;;;4155305;28;20183;-72
2023/05/03 05:46:01;;;;;;;7.63;3.13;;;15.10;95.90;;;;;;4160988;28;20079;-66
2023/05/03 05:48:02;;;;;;;7.78;3.08;;;15.30;95.90;;;;;;4162181;28;20422;-70
2023/05/03 05:50:04;;;;;;;11.15;3.20;;;15.40;95.80;;;;;;4161254;28;20076;-57
2023/05/03 05:52:05;;;;;;;9.95;3.00;;;15.50;96.00;;;;;;4147050;28;20038;-59
2023/05/03 05:54:07;;;;;;;11.38;3.45;;;15.60;95.80;;;;;;4145960;28;20052;-62
2023/05/03 05:56:08;;;;;;;9.30;2.85;;;15.60;95.70;;;;;;4145649;28;20396;-76
2023/05/03 05:58:11;;;;;;;6.00;2.72;;;15.90;95.50;;;;;;4156690;28;20049;-67
2023/05/03 06:00:13;;;;;;;13.70;4.05;;;16.00;95.10;;;;;;4142924;28;20125;-60
2023/05/03 06:02:22;;;;;;;9.68;3.45;;;16.10;94.80;;;;;;4150674;28;20493;-59
2023/05/03 06:04:23;;;;;;;6.43;2.40;;;16.20;94.70;;;;;;4152036;28;20506;-59
2023/05/03 06:06:24;;;;;;;4.72;2.15;;;16.30;94.20;;;;;;4146355;28;20038;-66
2023/05/03 06:08:26;;;;;;;6.47;2.60;;;16.40;94.10;;;;;;4146003;28;20379;-59
2023/05/03 06:10:27;;;;;;;5.30;2.38;;;16.60;93.80;;;;;;4157394;28;20493;-71
2023/05/03 06:12:29;;;;;;;4.50;2.38;;;16.70;93.50;;;;;;4146715;28;20034;-59
2023/05/03 06:14:30;;;;;;;11.73;5.13;;;16.80;93.50;;;;;;4155852;28;20033;-73
2023/05/03 06:16:31;;;;;;;5.63;2.38;;;16.70;93.40;;;;;;4154854;28;20030;-57
2023/05/03 06:18:32;;;;;;;9.25;4.80;;;16.60;93.30;;;;;;4157983;28;20042;-73
2023/05/03 06:20:34;;;;;;;7.97;2.30;;;16.70;93.10;;;;;;4127965;28;20040;-60
2023/05/03 06:22:35;;;;;;;5.97;2.30;;;16.80;93.00;;;;;;4145990;28;20057;-67
2023/05/03 06:24:36;;;;;;;5.07;2.60;;;16.90;92.60;;;;;;4145504;28;20038;-58
2023/05/03 06:26:37;;;;;;;8.77;1.98;;;16.80;92.30;;;;;;4161272;28;20102;-59
2023/05/03 06:28:38;;;;;;;3.40;1.83;;;16.70;92.40;;;;;;4160388;28;20085;-59
2023/05/03 06:30:39;;;;;;;3.55;1.85;;;16.70;92.20;;;;;;4161062;28;20033;-73
2023/05/03 06:32:41;;;;;;;4.93;1.48;;;16.60;91.90;;;;;;4161948;28;20444;-57
2023/05/03 06:34:42;;;;;;;3.85;1.45;;;16.60;92.00;;;;;;4160853;28;20102;-66
2023/05/03 06:36:43;;;;;;;2.83;1.52;;;16.80;91.40;;;;;;4162530;28;20029;-71
2023/05/03 06:38:44;;;;;;;5.25;1.95;;;16.80;91.00;;;;;;4152915;28;20112;-73
2023/05/03 06:40:46;;;;;;;6.90;2.97;;;16.90;90.90;;;;;;4147784;28;20045;-76
2023/05/03 06:42:48;;;;;;;4.15;1.90;;;16.90;91.00;;;;;;4160249;28;20034;-75
2023/05/03 06:44:49;;;;;;;3.03;1.90;;;17.00;91.10;;;;;;4162017;28;20488;-57
2023/05/03 06:46:50;;;;;;;7.57;2.03;;;17.10;91.10;;;;;;4158470;28;20034;-58
2023/05/03 06:48:55;;;;;;;6.22;2.13;;;17.10;91.10;;;;;;4162058;28;20536;-69
2023/05/03 06:50:56;;;;;;;6.40;1.83;;;17.10;90.90;;;;;;4161010;28;20140;-56
2023/05/03 06:52:57;;;;;;;5.00;1.73;;;17.00;90.80;;;;;;4162417;28;20030;-60
2023/05/03 06:54:58;;;;;;;7.07;1.95;;;17.00;90.80;;;;;;4161001;28;20033;-64
2023/05/03 06:57:00;;;;;;;6.43;2.67;;;17.10;90.70;;;;;;4158920;28;20489;-58
2023/05/03 06:59:02;;;;;;;5.00;1.40;;;17.10;90.60;;;;;;4148887;28;20045;-58
2023/05/03 07:01:03;;;;;;;4.70;1.58;;;17.30;90.60;;;;;;4145837;28;20045;-60
2023/05/03 07:03:05;;;;;;;2.47;1.75;;;17.40;90.40;;;;;;4146206;28;20108;-58
2023/05/03 07:05:06;;;;;;;12.90;2.35;;;17.30;90.20;;;;;;4144328;28;20029;-60
2023/05/03 07:07:08;;;;;;;3.25;1.60;;;17.20;90.10;;;;;;4146062;28;20050;-59
2023/05/03 07:09:09;;;;;;;7.85;1.60;;;17.30;90.00;;;;;;4158597;28;20072;-65
2023/05/03 07:11:10;;;;;;;5.90;1.63;;;17.40;89.50;;;;;;4161057;28;20072;-68
2023/05/03 07:13:11;;;;;;;5.03;2.10;;;17.30;90.40;;;;;;4160504;28;20087;-72
2023/05/03 07:15:13;;;;;;;7.10;2.33;;;17.20;90.90;;;;;;4153474;28;20050;-65
2023/05/03 07:17:14;;;;;;;5.53;1.70;;;16.90;91.10;;;;;;4144893;28;20448;-70
2023/05/03 07:19:16;;;;;;;4.38;1.60;;;16.70;91.50;;;;;;4160463;28;20072;-71
2023/05/03 07:21:17;;;;;;;4.38;1.70;;;16.50;91.80;;;;;;4160517;28;20025;-69
2023/05/03 07:23:18;;;;;;;2.38;1.75;;;16.60;92.00;;;;;;4161606;28;20107;-72
2023/05/03 07:25:19;;;;;;;4.85;2.50;;;16.80;91.90;;;;;;4160272;28;20532;-73
2023/05/03 07:27:20;;;;;;;13.27;2.20;;;16.90;92.00;;;;;;4165853;28;20425;-70
2023/05/03 07:29:21;;;;;;;5.10;1.30;;;17.20;90.80;;;;;;4155956;28;20053;-74
2023/05/03 07:31:23;;;;;;;3.28;1.20;;;17.40;90.00;;;;;;4144374;28;20026;-74
2023/05/03 07:33:25;;;;;;;5.88;1.27;;;17.70;88.70;;;;;;4155248;28;20034;-71
2023/05/03 07:35:26;;;;;;;3.25;0.93;;;18.20;87.40;;;;;;4144862;28;20120;-74
2023/05/03 07:37:27;;;;;;;5.25;0.80;;;18.40;84.00;;;;;;4127723;28;20093;-72
2023/05/03 07:39:29;;;;;;;3.13;0.90;;;18.70;83.50;;;;;;4150708;28;20061;-70
2023/05/03 07:41:30;;;;;;;1.52;0.98;;;18.80;81.60;;;;;;4156895;28;20078;-65
2023/05/03 07:43:31;;;;;;;4.40;1.00;;;19.00;81.00;;;;;;4176014;28;20402;-73
2023/05/03 07:45:33;;;;;;;1.70;1.50;;;19.10;80.00;;;;;;4177203;28;20036;-72
2023/05/03 07:47:36;;;;;;;4.85;1.25;;;19.20;78.90;;;;;;4175721;28;20114;-74
2023/05/03 07:49:38;;;;;;;2.60;1.00;;;19.20;77.90;;;;;;4177611;28;20062;-74
2023/05/03 07:51:39;;;;;;;1.45;1.00;;;19.40;77.90;;;;;;4176849;28;20040;-73
2023/05/03 07:53:41;;;;;;;3.92;0.93;;;19.60;76.30;;;;;;4143011;28;20450;-74
2023/05/03 07:55:42;;;;;;;4.03;0.80;;;19.70;74.50;;;;;;4161087;28;20084;-63
2023/05/03 07:57:43;;;;;;;2.00;0.80;;;19.80;72.50;;;;;;4160577;28;20075;-59
2023/05/03 07:59:44;;;;;;;2.88;1.30;;;20.00;71.40;;;;;;4161806;28;20094;-68
2023/05/03 08:01:45;;;;;;;4.45;0.82;;;20.20;70.60;;;;;;4163310;28;20084;-59
2023/05/03 08:03:49;;;;;;;1.85;0.73;;;20.50;69.50;;;;;;4160042;28;20076;-68
2023/05/03 08:05:50;;;;;;;3.03;0.80;;;20.80;68.40;;;;;;4149109;28;20030;-68
2023/05/03 08:07:52;;;;;;;4.78;0.80;;;21.00;67.70;;;;;;4161949;28;20498;-69
2023/05/03 08:09:53;;;;;;;2.28;0.73;;;21.30;66.60;;;;;;4158692;28;20034;-67
2023/05/03 08:11:55;;;;;;;2.85;0.50;;;21.60;66.10;;;;;;4179145;28;20052;-71
2023/05/03 08:13:56;;;;;;;0.90;0.50;;;21.90;64.30;;;;;;4161261;28;20088;-64
2023/05/03 08:15:58;;;;;;;2.15;0.65;;;22.10;63.20;;;;;;4146090;28;20038;-59
2023/05/03 08:17:59;;;;;;;0.82;0.80;;;22.30;62.60;;;;;;4155276;28;20195;-61
2023/05/03 08:20:00;;;;;;;2.17;0.80;;;22.10;62.40;;;;;;4139112;28;20022;-64
2023/05/03 08:22:02;;;;;;;1.38;0.77;;;21.80;61.60;;;;;;4162232;28;20432;-61
2023/05/03 08:24:05;;;;;;;1.25;0.90;;;21.50;61.30;;;;;;4163269;28;20053;-69
2023/05/03 08:26:09;;;;;;;2.90;0.88;;;21.70;62.90;;;;;;4146922;28;20022;-68
2023/05/03 08:28:10;;;;;;;5.10;1.33;;;21.60;62.90;;;;;;4147175;28;20525;-58
2023/05/03 08:30:12;;;;;;;6.97;1.38;;;21.60;63.40;;;;;;4153047;28;20041;-65
2023/05/03 08:32:13;;;;;;;4.20;1.00;;;21.60;63.50;;;;;;4151303;28;20026;-65
2023/05/03 08:34:14;;;;;;;6.28;0.77;;;21.40;63.60;;;;;;4147759;28;20034;-60
2023/05/03 08:36:15;;;;;;;7.43;1.10;;;21.10;62.80;;;;;;4146724;28;20088;-60
2023/05/03 08:38:16;;;;;;;6.30;0.95;;;20.80;63.30;;;;;;4147904;28;20046;-63
2023/05/03 08:40:21;;;;;;;3.85;1.02;;;20.60;63.70;;;;;;4154640;28;20049;-69
2023/05/03 08:42:23;;;;;;;9.05;2.22;;;20.50;62.80;;;;;;4149742;28;20562;-67
2023/05/03 08:44:27;;;;;;;2.75;0.90;;;20.40;63.10;;;;;;4149962;28;20525;-69
2023/05/03 08:46:29;;;;;;;2.03;1.40;;;20.50;64.00;;;;;;4155402;28;20112;-60
2023/05/03 08:48:30;;;;;;;5.78;1.30;;;20.60;63.50;;;;;;4153952;28;20464;-67
2023/05/03 08:50:36;;;;;;;3.72;1.13;;;20.60;63.30;;;;;;4160530;28;20029;-72
2023/05/03 08:52:40;;;;;;;1.25;1.00;;;20.60;64.10;;;;;;4162993;28;20575;-64
2023/05/03 08:54:41;;;;;;;1.30;0.98;;;20.70;63.60;;;;;;4162207;28;20029;-64
2023/05/03 08:56:43;;;;;;;2.78;1.27;;;20.70;64.50;;;;;;4155690;28;20398;-66
2023/05/03 08:58:44;;;;;;;5.75;1.20;;;20.80;65.00;;;;;;4163310;28;20453;-66
2023/05/03 09:00:45;;;;;;;2.10;1.27;;;20.90;65.00;;;;;;4159788;28;20045;-69
2023/05/03 09:02:48;;;;;;;6.90;1.50;;;21.00;64.50;;;;;;4167424;28;20112;-60
2023/05/03 09:04:50;;;;;;;2.60;1.08;;;20.90;64.30;;;;;;4161215;28;20061;-70
2023/05/03 09:07:07;;;;;;;2.75;0.95;;;20.60;64.50;;;;;;4157132;28;20037;-60
2023/05/03 09:09:08;;;;;;;4.93;0.98;;;20.30;64.00;;;;;;4160943;28;20052;-58
2023/05/03 09:11:20;;;;;;;4.30;0.98;;;20.30;64.50;;;;;;4162981;28;20091;-62
2023/05/03 09:13:28;;;;;;;1.33;1.00;;;20.20;63.30;;;;;;4156822;28;20037;-65
2023/05/03 09:15:29;;;;;;;3.00;1.10;;;20.10;64.10;;;;;;4145575;28;20077;-62
2023/05/03 09:17:31;;;;;;;5.20;1.27;;;19.90;63.90;;;;;;4150133;28;20046;-60
2023/05/03 09:19:57;;;;;;;4.00;0.90;;;19.90;64.10;;;;;;4145989;28;20479;-59
2023/05/03 09:22:06;;;;;;;1.88;1.00;;;19.80;64.20;;;;;;4146089;28;20033;-66
2023/05/03 09:24:15;;;;;;;3.47;1.00;;;19.80;64.50;;;;;;4156144;28;20053;-70
2023/05/03 09:26:27;;;;;;;3.42;0.90;;;19.80;64.00;;;;;;4158522;28;20029;-60
2023/05/03 09:28:28;;;;;;;1.42;1.15;;;19.70;64.20;;;;;;4146152;28;20034;-69
2023/05/03 09:30:29;;;;;;;3.55;1.45;;;19.70;64.40;;;;;;4145822;28;20091;-60
2023/05/03 09:32:46;;;;;;;1.92;0.90;;;19.80;64.10;;;;;;4145061;28;20030;-59
2023/05/03 09:34:48;;;;;;;1.23;1.00;;;19.80;64.10;;;;;;4146780;28;20438;-65
2023/05/03 09:36:49;;;;;;;3.13;1.25;;;19.80;64.80;;;;;;4153399;28;20087;-64
2023/05/03 09:38:51;;;;;;;2.67;0.85;;;19.90;64.90;;;;;;4161646;28;20049;-59
2023/05/03 09:40:53;;;;;;;1.40;0.98;;;19.90;65.40;;;;;;4145490;28;20080;-61
2023/05/03 09:43:06;;;;;;;3.53;1.25;;;19.90;65.60;;;;;;4159384;28;20029;-61
2023/05/03 09:45:08;;;;;;;5.28;0.98;;;19.90;66.30;;;;;;4161137;28;20049;-60
2023/05/03 09:47:10;;;;;;;5.80;1.33;;;19.90;67.10;;;;;;4161445;28;20091;-58
2023/05/03 09:49:12;;;;;;;3.13;1.10;;;19.90;67.50;;;;;;4161950;28;20099;-59
2023/05/03 09:51:13;;;;;;;5.22;1.27;;;20.00;68.20;;;;;;4162277;28;20041;-59
2023/05/03 09:53:18;;;;;;;1.83;0.95;;;20.00;68.30;;;;;;4150368;28;20042;-62
2023/05/03 09:55:20;;;;;;;4.95;1.70;;;19.90;67.80;;;;;;4146717;28;20042;-66
2023/05/03 09:57:21;;;;;;;3.92;1.25;;;19.80;68.30;;;;;;4153471;28;20099;-72
2023/05/03 09:59:22;;;;;;;6.75;1.25;;;19.90;68.60;;;;;;4162958;28;20486;-68
2023/05/03 10:01:24;;;;;;;5.57;1.25;;;20.00;68.70;;;;;;4159041;28;20037;-70
2023/05/03 10:03:49;;;;;;;9.77;1.42;;;20.00;68.70;;;;;;4162510;28;20374;-59
2023/05/03 10:05:51;;;;;;;6.82;1.35;;;20.00;69.40;;;;;;4157254;28;20569;-61
2023/05/03 10:07:55;;;;;;;23.77;2.90;;;19.90;70.00;;;;;;4158930;28;20103;-70
2023/05/03 10:09:58;;;;;;;1.92;1.50;;;19.80;70.10;;;;;;4145608;28;20403;-59
2023/05/03 10:12:03;;;;;;;5.40;1.67;;;19.80;70.50;;;;;;4158592;28;20049;-66
2023/05/03 10:14:06;;;;;;;4.57;1.30;;;19.90;70.80;;;;;;4164862;28;20416;-58
2023/05/03 10:16:19;;;;;;;5.82;1.45;;;20.10;71.00;;;;;;4162057;28;20054;-61
2023/05/03 10:18:26;;;;;;;4.30;1.30;;;20.20;71.70;;;;;;4145282;28;20084;-71
2023/05/03 10:20:40;;;;;;;5.45;1.70;;;20.40;71.50;;;;;;4145375;28;20544;-74
2023/05/03 10:23:10;;;;;;;3.38;1.52;;;20.40;71.90;;;;;;4146956;28;20474;-66
2023/05/03 10:25:12;;;;;;;5.57;1.02;;;20.40;71.60;;;;;;4155544;28;20083;-59
2023/05/03 10:27:15;;;;;;;4.75;1.50;;;20.30;70.20;;;;;;4152984;28;20034;-60
2023/05/03 10:29:36;;;;;;;2.53;1.50;;;20.10;69.10;;;;;;4145530;28;20115;-73
2023/05/03 10:31:45;;;;;;;1.85;0.90;;;19.90;69.00;;;;;;4144630;28;20034;-63
2023/05/03 10:33:46;;;;;;;2.10;1.40;;;19.90;69.70;;;;;;4145640;28;20390;-68
2023/05/03 10:35:52;;;;;;;6.32;1.10;;;19.90;68.40;;;;;;4144737;28;20076;-72
2023/05/03 10:37:57;;;;;;;1.38;1.20;;;19.80;68.60;;;;;;4144946;28;20540;-63